createdAt,value
2019-04-29T00:00:43.829Z,87.70
2019-04-29T00:02:51.010Z,87.74
2019-04-29T00:04:59.334Z,87.93
2019-04-29T00:07:07.565Z,88.08
2019-04-29T00:09:19.268Z,88.35
2019-04-29T00:11:27.002Z,88.33
2019-04-29T00:13:34.191Z,88.40
2019-04-29T00:15:45.709Z,88.47
2019-04-29T00:17:58.082Z,88.64
2019-04-29T00:20:23.689Z,88.52
2019-04-29T00:22:32.078Z,88.65
2019-04-29T00:24:38.992Z,88.61
2019-04-29T00:26:46.430Z,88.55
2019-04-29T00:28:53.700Z,88.39
2019-04-29T00:31:01.719Z,88.46
2019-04-29T00:33:09.359Z,88.55
2019-04-29T00:35:16.638Z,88.67
2019-04-29T00:37:25.486Z,88.65
2019-04-29T00:39:37.136Z,88.67
2019-04-29T00:41:47.725Z,88.66
2019-04-29T00:43:56.562Z,88.53
2019-04-29T00:46:04.017Z,88.55
2019-04-29T00:48:11.581Z,88.50
2019-04-29T00:50:19.387Z,88.48
2019-04-29T00:52:28.187Z,88.43
2019-04-29T00:54:38.588Z,88.43
2019-04-29T00:56:45.924Z,88.60
2019-04-29T00:58:56.449Z,88.70
2019-04-29T01:01:05.519Z,88.55
2019-04-29T01:03:12.541Z,88.57
2019-04-29T01:05:19.750Z,88.68
2019-04-29T01:07:26.757Z,88.82
2019-04-29T01:09:35.090Z,88.84
2019-04-29T01:11:42.747Z,88.71
2019-04-29T01:13:50.115Z,88.92
2019-04-29T01:15:57.381Z,88.94
2019-04-29T01:18:04.837Z,88.88
2019-04-29T01:20:14.032Z,88.99
2019-04-29T01:22:22.150Z,89.14
2019-04-29T01:24:30.528Z,89.05
2019-04-29T01:26:43.055Z,89.22
2019-04-29T01:28:51.467Z,89.42
2019-04-29T01:31:03.498Z,89.59
2019-04-29T01:33:10.600Z,89.66
2019-04-29T01:35:17.675Z,89.93
2019-04-29T01:37:26.408Z,90.13
2019-04-29T01:39:41.365Z,90.24
2019-04-29T01:41:50.506Z,90.29
2019-04-29T01:44:02.749Z,90.36
2019-04-29T01:46:09.953Z,90.38
2019-04-29T01:48:17.414Z,90.40
2019-04-29T01:50:24.082Z,90.44
2019-04-29T01:52:31.558Z,90.46
2019-04-29T01:54:38.585Z,90.57
2019-04-29T01:56:45.629Z,90.52
2019-04-29T01:58:53.063Z,90.47
2019-04-29T02:01:00.999Z,90.66
2019-04-29T02:03:08.446Z,90.71
2019-04-29T02:05:15.586Z,90.64
2019-04-29T02:07:23.224Z,90.73
2019-04-29T02:09:32.123Z,90.79
2019-04-29T02:11:42.029Z,90.76
2019-04-29T02:13:49.243Z,90.82
2019-04-29T02:15:56.328Z,90.74
2019-04-29T02:18:03.549Z,90.73
2019-04-29T02:20:11.365Z,90.76
2019-04-29T02:22:28.737Z,90.63
2019-04-29T02:24:37.452Z,90.58
2019-04-29T02:26:45.154Z,90.69
2019-04-29T02:28:52.858Z,90.75
2019-04-29T02:31:01.874Z,90.70
2019-04-29T02:33:09.428Z,90.65
2019-04-29T02:35:16.158Z,90.41
2019-04-29T02:37:27.801Z,90.50
2019-04-29T02:39:36.586Z,90.08
2019-04-29T02:41:48.768Z,90.28
2019-04-29T02:43:58.408Z,90.34
2019-04-29T02:46:06.382Z,90.05
2019-04-29T02:50:28.783Z,90.01
2019-04-29T02:52:37.317Z,90.08
2019-04-29T02:54:45.117Z,90.04
2019-04-29T02:56:57.275Z,90.08
2019-04-29T02:59:09.645Z,89.59
2019-04-29T03:01:38.255Z,89.47
2019-04-29T03:03:47.153Z,89.07
2019-04-29T03:06:00.367Z,89.10
2019-04-29T03:08:07.221Z,89.01
2019-04-29T03:10:14.844Z,89.01
2019-04-29T03:12:22.792Z,88.96
2019-04-29T03:14:30.796Z,88.55
2019-04-29T03:16:38.157Z,88.55
2019-04-29T03:18:49.798Z,88.66
2019-04-29T03:20:58.955Z,88.52
2019-04-29T03:23:11.069Z,88.69
2019-04-29T03:25:18.189Z,88.09
2019-04-29T03:27:27.392Z,88.06
2019-04-29T03:29:34.402Z,87.75
2019-04-29T03:31:42.277Z,87.80
2019-04-29T03:33:50.492Z,87.79
2019-04-29T03:35:57.998Z,87.87
2019-04-29T03:38:05.639Z,87.76
2019-04-29T03:40:13.013Z,87.78
2019-04-29T03:42:20.008Z,87.58
2019-04-29T03:44:27.602Z,87.75
2019-04-29T03:46:34.681Z,87.61
2019-04-29T03:48:41.963Z,87.74
2019-04-29T03:50:48.985Z,87.77
2019-04-29T03:52:56.052Z,87.70
2019-04-29T03:55:03.699Z,87.88
2019-04-29T03:57:12.902Z,88.08
2019-04-29T03:59:20.593Z,87.95
2019-04-29T04:01:42.254Z,87.86
2019-04-29T04:03:51.260Z,87.70
2019-04-29T04:06:16.245Z,87.80
2019-04-29T04:08:25.200Z,87.88
2019-04-29T04:10:32.059Z,87.84
2019-04-29T04:12:39.050Z,88.01
2019-04-29T04:15:07.237Z,87.87
2019-04-29T04:17:20.238Z,88.10
2019-04-29T04:19:25.833Z,88.36
2019-04-29T04:21:33.252Z,88.30
2019-04-29T04:23:40.661Z,88.25
2019-04-29T04:25:48.210Z,88.04
2019-04-29T04:27:55.599Z,88.04
2019-04-29T04:30:02.993Z,88.02
2019-04-29T04:32:10.168Z,87.85
2019-04-29T04:34:17.241Z,87.90
2019-04-29T04:36:24.684Z,87.74
2019-04-29T04:38:31.698Z,87.33
2019-04-29T04:40:46.971Z,87.28
2019-04-29T04:42:53.996Z,86.97
2019-04-29T04:45:01.092Z,86.85
2019-04-29T04:47:08.598Z,86.67
2019-04-29T04:49:16.079Z,86.87
2019-04-29T04:51:23.192Z,86.53
2019-04-29T04:53:30.530Z,86.30
2019-04-29T04:55:39.746Z,86.18
2019-04-29T04:57:47.708Z,86.30
2019-04-29T04:59:54.985Z,86.40
2019-04-29T05:02:02.170Z,86.46
2019-04-29T05:04:09.706Z,86.00
2019-04-29T05:06:16.969Z,85.68
2019-04-29T05:08:24.054Z,84.77
2019-04-29T05:10:31.357Z,84.41
2019-04-29T05:12:38.447Z,84.79
2019-04-29T05:14:45.150Z,84.81
2019-04-29T05:16:52.453Z,84.63
2019-04-29T05:18:59.915Z,84.42
2019-04-29T05:21:07.248Z,83.64
2019-04-29T05:23:14.797Z,83.45
2019-04-29T05:25:22.239Z,83.14
2019-04-29T05:27:29.435Z,82.95
2019-04-29T05:29:37.699Z,82.00
2019-04-29T05:31:45.537Z,82.21
2019-04-29T05:33:53.112Z,81.73
2019-04-29T05:36:07.024Z,81.73
2019-04-29T05:38:19.236Z,82.56
2019-04-29T05:40:40.455Z,83.03
2019-04-29T05:42:48.296Z,82.72
2019-04-29T05:45:09.210Z,81.51
2019-04-29T05:47:18.105Z,80.63
2019-04-29T05:49:29.777Z,78.80
2019-04-29T05:51:50.568Z,76.00
2019-04-29T05:54:01.970Z,76.24
2019-04-29T05:56:09.260Z,74.84
2019-04-29T05:58:16.730Z,75.09
2019-04-29T06:00:24.282Z,74.95
2019-04-29T06:02:36.331Z,75.58
2019-04-29T06:04:40.634Z,75.81
2019-04-29T06:06:47.611Z,76.58
2019-04-29T06:08:55.224Z,76.78
2019-04-29T06:11:03.305Z,77.06
2019-04-29T06:13:10.453Z,76.41
2019-04-29T06:15:17.535Z,76.46
2019-04-29T06:17:33.655Z,75.72
2019-04-29T06:19:41.375Z,75.61
2019-04-29T06:21:48.783Z,75.45
2019-04-29T06:23:59.474Z,75.12
2019-04-29T06:26:05.076Z,74.87
2019-04-29T06:30:26.997Z,74.51
2019-04-29T06:32:33.727Z,74.19
2019-04-29T06:34:41.772Z,74.11
2019-04-29T06:36:49.646Z,74.26
2019-04-29T06:38:57.623Z,73.99
2019-04-29T06:41:05.530Z,74.16
2019-04-29T06:43:36.159Z,74.39
2019-04-29T06:45:44.487Z,74.33
2019-04-29T06:47:51.787Z,74.25
2019-04-29T06:49:58.776Z,73.59
2019-04-29T06:52:06.013Z,74.47
2019-04-29T06:54:12.994Z,74.27
2019-04-29T06:56:21.241Z,73.55
2019-04-29T06:58:28.342Z,73.31
2019-04-29T07:00:35.356Z,72.32
2019-04-29T07:02:45.452Z,72.51
2019-04-29T07:04:51.895Z,71.62
2019-04-29T07:06:59.103Z,71.94
2019-04-29T07:09:08.062Z,71.47
2019-04-29T07:11:15.206Z,70.84
2019-04-29T07:13:24.257Z,70.93
2019-04-29T07:15:31.285Z,70.76
2019-04-29T07:17:41.312Z,69.97
2019-04-29T07:19:48.219Z,69.66
2019-04-29T07:21:56.638Z,69.41
2019-04-29T07:24:04.083Z,68.42
2019-04-29T07:26:11.690Z,68.25
2019-04-29T07:28:18.678Z,67.29
2019-04-29T07:30:29.249Z,67.84
2019-04-29T07:32:35.605Z,66.98
2019-04-29T07:35:05.867Z,66.95
2019-04-29T07:37:13.033Z,67.37
2019-04-29T07:39:20.835Z,67.17
2019-04-29T07:41:27.999Z,66.77
2019-04-29T07:43:38.641Z,66.62
2019-04-29T07:46:03.712Z,66.11
2019-04-29T07:48:09.890Z,65.73
2019-04-29T07:50:17.481Z,65.80
2019-04-29T07:52:25.763Z,65.05
2019-04-29T07:54:32.960Z,65.72
2019-04-29T07:56:42.329Z,65.37
2019-04-29T07:58:51.379Z,64.87
2019-04-29T08:00:58.677Z,63.79
2019-04-29T08:03:08.687Z,62.91
2019-04-29T08:05:16.233Z,62.51
2019-04-29T08:07:30.689Z,63.24
2019-04-29T08:09:44.260Z,62.65
2019-04-29T08:11:49.489Z,61.94
2019-04-29T08:13:58.504Z,61.91
2019-04-29T08:16:05.803Z,62.21
2019-04-29T08:18:16.316Z,62.04
2019-04-29T08:20:22.736Z,61.92
2019-04-29T08:22:32.117Z,61.40
2019-04-29T08:24:39.051Z,60.68
2019-04-29T08:26:47.966Z,60.74
2019-04-29T08:29:00.313Z,60.10
2019-04-29T08:31:03.668Z,60.09
2019-04-29T08:33:12.291Z,60.23
2019-04-29T08:35:20.350Z,59.05
2019-04-29T08:37:27.761Z,59.24
2019-04-29T08:39:35.233Z,59.64
2019-04-29T08:41:43.535Z,59.70
2019-04-29T08:44:16.023Z,59.12
2019-04-29T08:46:13.074Z,57.93
2019-04-29T08:48:20.234Z,57.50
2019-04-29T08:50:27.928Z,57.00
2019-04-29T08:52:35.513Z,56.98
2019-04-29T08:54:43.355Z,57.12
2019-04-29T08:57:02.158Z,57.06
2019-04-29T08:58:59.631Z,56.23
2019-04-29T09:01:07.153Z,56.10
2019-04-29T09:03:14.178Z,55.46
2019-04-29T09:05:21.553Z,55.14
2019-04-29T09:07:28.474Z,55.38
2019-04-29T09:09:35.794Z,54.64
2019-04-29T09:11:43.546Z,54.16
2019-04-29T09:13:51.844Z,53.72
2019-04-29T09:15:58.794Z,54.29
2019-04-29T09:18:06.290Z,53.64
2019-04-29T09:20:14.104Z,53.52
2019-04-29T09:22:22.924Z,53.13
2019-04-29T09:24:30.034Z,53.25
2019-04-29T09:26:42.113Z,52.78
2019-04-29T09:28:49.908Z,51.20
2019-04-29T09:30:57.303Z,51.20
2019-04-29T09:33:04.574Z,50.47
2019-04-29T09:35:11.854Z,50.40
2019-04-29T09:37:18.739Z,50.25
2019-04-29T09:39:27.628Z,50.64
2019-04-29T09:41:36.414Z,50.13
2019-04-29T09:43:54.443Z,49.91
2019-04-29T09:46:03.250Z,49.88
2019-04-29T09:48:11.026Z,49.11
2019-04-29T09:50:20.815Z,49.12
2019-04-29T09:52:32.864Z,49.28
2019-04-29T09:54:40.186Z,48.69
2019-04-29T09:56:47.564Z,48.90
2019-04-29T09:58:56.240Z,48.15
2019-04-29T10:01:19.133Z,48.50
2019-04-29T10:03:28.331Z,48.66
2019-04-29T10:05:40.749Z,48.56
2019-04-29T10:07:48.301Z,48.55
2019-04-29T10:09:57.399Z,47.94
2019-04-29T10:12:04.435Z,47.81
2019-04-29T10:14:13.578Z,47.54
2019-04-29T10:16:39.056Z,47.95
2019-04-29T10:18:47.808Z,47.87
2019-04-29T10:21:02.592Z,47.63
2019-04-29T10:27:24.328Z,47.23
2019-04-29T10:29:32.966Z,46.79
2019-04-29T10:31:44.316Z,46.93
2019-04-29T10:33:54.958Z,46.89
2019-04-29T10:36:01.665Z,46.65
2019-04-29T10:38:08.834Z,46.66
2019-04-29T10:40:56.486Z,46.75
2019-04-29T10:43:11.458Z,46.37
2019-04-29T10:45:22.204Z,46.25
2019-04-29T10:47:34.582Z,46.31
2019-04-29T10:49:43.825Z,46.52
2019-04-29T10:51:51.024Z,46.32
2019-04-29T10:53:58.445Z,46.40
2019-04-29T10:56:07.013Z,46.47
2019-04-29T10:58:14.361Z,46.20
2019-04-29T11:00:28.232Z,45.89
2019-04-29T11:02:37.737Z,45.50
2019-04-29T11:04:48.621Z,45.04
2019-04-29T11:06:56.042Z,46.04
2019-04-29T11:09:14.331Z,45.47
2019-04-29T11:11:23.249Z,45.70
2019-04-29T11:13:30.375Z,46.00
2019-04-29T11:15:38.868Z,45.82
2019-04-29T11:17:47.900Z,45.22
2019-04-29T11:19:55.360Z,45.22
2019-04-29T11:22:03.276Z,45.37
2019-04-29T11:24:12.175Z,45.14
2019-04-29T11:26:24.430Z,45.34
2019-04-29T11:28:32.109Z,45.18
2019-04-29T11:30:40.611Z,44.65
2019-04-29T11:32:54.565Z,45.05
2019-04-29T11:35:06.266Z,45.34
2019-04-29T11:37:17.763Z,44.50
2019-04-29T11:39:23.398Z,44.65
2019-04-29T11:41:32.175Z,44.66
2019-04-29T11:43:40.219Z,45.17
2019-04-29T11:45:47.592Z,45.18
2019-04-29T11:47:54.924Z,45.41
2019-04-29T11:50:18.862Z,45.00
2019-04-29T11:52:28.179Z,44.40
2019-04-29T11:54:35.579Z,45.07
2019-04-29T11:56:43.608Z,46.12
2019-04-29T11:58:59.792Z,45.58
2019-04-29T12:01:37.875Z,44.83
2019-04-29T12:03:41.663Z,45.31
2019-04-29T12:05:53.993Z,45.43
2019-04-29T12:08:05.010Z,45.90
2019-04-29T12:10:12.239Z,45.67
2019-04-29T12:12:22.558Z,44.87
2019-04-29T12:14:38.059Z,45.38
2019-04-29T12:17:01.228Z,45.36
2019-04-29T12:19:26.442Z,45.25
2019-04-29T12:21:35.489Z,44.62
2019-04-29T12:23:42.418Z,44.84
2019-04-29T12:25:49.812Z,45.01
2019-04-29T12:28:01.604Z,45.03
2019-04-29T12:30:10.404Z,45.37
2019-04-29T12:32:20.743Z,45.46
2019-04-29T12:34:46.983Z,45.45
2019-04-29T12:36:56.448Z,44.87
2019-04-29T12:39:42.361Z,45.29
2019-04-29T12:41:48.515Z,45.68
2019-04-29T12:43:54.023Z,44.63
2019-04-29T12:46:04.706Z,45.04
2019-04-29T12:48:23.953Z,45.41
2019-04-29T12:50:22.838Z,45.23
2019-04-29T12:52:30.752Z,45.39
2019-04-29T12:54:41.874Z,45.29
2019-04-29T12:56:49.236Z,45.75
2019-04-29T12:58:59.661Z,45.42
2019-04-29T13:01:10.721Z,45.64
2019-04-29T13:03:19.577Z,45.55
2019-04-29T13:05:57.163Z,45.58
2019-04-29T13:07:54.676Z,44.64
2019-04-29T13:10:13.602Z,45.78
2019-04-29T13:12:20.149Z,45.71
2019-04-29T13:14:33.202Z,45.31
2019-04-29T13:16:40.283Z,44.93
2019-04-29T13:18:48.870Z,45.05
2019-04-29T13:21:09.513Z,45.38
2019-04-29T13:23:17.290Z,45.22
2019-04-29T13:25:19.750Z,45.16
2019-04-29T13:27:26.717Z,45.08
2019-04-29T13:29:36.196Z,45.20
2019-04-29T13:31:43.083Z,45.13
2019-04-29T13:33:52.906Z,45.45
2019-04-29T13:36:00.353Z,45.55
2019-04-29T13:38:07.959Z,45.06
2019-04-29T13:40:16.823Z,44.50
2019-04-29T13:42:24.431Z,44.56
2019-04-29T13:44:32.395Z,44.54
2019-04-29T13:46:51.096Z,44.71
2019-04-29T13:49:13.184Z,45.01
2019-04-29T13:51:34.044Z,44.86
2019-04-29T13:53:26.575Z,45.45
2019-04-29T13:55:47.978Z,45.60
2019-04-29T13:57:45.038Z,45.36
2019-04-29T14:00:10.967Z,45.33
2019-04-29T14:02:31.367Z,44.94
2019-04-29T14:04:37.006Z,44.63
2019-04-29T14:06:56.701Z,44.81
2019-04-29T14:08:55.325Z,44.95
2019-04-29T14:11:03.434Z,45.43
2019-04-29T14:13:16.301Z,45.44
2019-04-29T14:15:21.112Z,45.48
2019-04-29T14:17:31.830Z,45.57
2019-04-29T14:19:42.301Z,45.87
2019-04-29T14:21:48.082Z,46.00
2019-04-29T14:23:54.936Z,45.73
2019-04-29T14:26:01.802Z,45.77
2019-04-29T14:28:15.055Z,46.05
2019-04-29T14:30:37.324Z,46.09
2019-04-29T14:32:37.887Z,46.02
2019-04-29T14:34:53.102Z,46.23
2019-04-29T14:37:18.354Z,46.16
2019-04-29T14:39:15.629Z,45.90
2019-04-29T14:41:20.688Z,46.18
2019-04-29T14:45:55.102Z,46.25
2019-04-29T14:48:20.463Z,46.79
2019-04-29T14:50:30.683Z,46.58
2019-04-29T14:52:36.964Z,45.78
2019-04-29T14:54:43.815Z,46.27
2019-04-29T14:56:50.096Z,46.71
2019-04-29T14:59:06.506Z,46.81
2019-04-29T15:01:17.336Z,46.90
2019-04-29T15:03:25.804Z,47.44
2019-04-29T15:05:34.047Z,47.46
2019-04-29T15:07:42.057Z,47.41
2019-04-29T15:09:58.363Z,47.27
2019-04-29T15:12:07.142Z,47.15
2019-04-29T15:14:31.607Z,47.37
2019-04-29T15:16:40.425Z,47.65
2019-04-29T15:18:50.021Z,47.62
2019-04-29T15:20:56.882Z,47.52
2019-04-29T15:23:03.972Z,48.09
2019-04-29T15:25:12.523Z,48.11
2019-04-29T15:27:18.841Z,48.23
2019-04-29T15:29:26.448Z,48.23
2019-04-29T15:31:32.913Z,48.20
2019-04-29T15:33:39.523Z,48.49
2019-04-29T15:35:46.044Z,48.30
2019-04-29T15:37:52.525Z,48.27
2019-04-29T15:39:58.981Z,48.74
2019-04-29T15:42:06.977Z,48.82
2019-04-29T15:44:20.110Z,48.85
2019-04-29T15:46:23.601Z,49.05
2019-04-29T15:48:30.448Z,49.13
2019-04-29T15:50:39.123Z,49.23
2019-04-29T15:52:45.556Z,49.10
2019-04-29T15:54:52.764Z,49.42
2019-04-29T15:57:03.799Z,49.36
2019-04-29T15:59:09.814Z,49.14
2019-04-29T16:03:27.405Z,48.84
2019-04-29T16:05:54.172Z,48.74
2019-04-29T16:10:21.946Z,48.70
2019-04-29T16:12:33.815Z,48.83
2019-04-29T16:14:40.262Z,48.77
2019-04-29T16:16:48.248Z,48.51
2019-04-29T16:18:55.057Z,48.45
2019-04-29T16:21:01.503Z,48.82
2019-04-29T16:23:08.821Z,48.67
2019-04-29T16:25:16.897Z,48.68
2019-04-29T16:27:23.897Z,48.47
2019-04-29T16:29:30.155Z,48.49
2019-04-29T16:31:36.705Z,48.34
2019-04-29T16:33:47.298Z,48.20
2019-04-29T16:35:51.782Z,48.46
2019-04-29T16:38:05.693Z,48.94
2019-04-29T16:40:11.641Z,48.87
2019-04-29T16:42:22.648Z,48.33
2019-04-29T16:44:36.668Z,48.54
2019-04-29T16:46:38.117Z,48.45
2019-04-29T16:48:45.048Z,48.19
2019-04-29T16:50:53.376Z,48.37
2019-04-29T16:53:00.219Z,48.51
2019-04-29T16:55:30.237Z,48.62
2019-04-29T16:57:39.858Z,48.25
2019-04-29T16:59:48.148Z,48.86
2019-04-29T17:01:55.242Z,49.14
2019-04-29T17:04:05.587Z,49.52
2019-04-29T17:06:12.650Z,49.77
2019-04-29T17:08:22.709Z,49.82
2019-04-29T17:10:38.682Z,50.22
2019-04-29T17:12:49.145Z,50.39
2019-04-29T17:15:04.129Z,50.60
2019-04-29T17:17:09.963Z,50.62
2019-04-29T17:19:17.323Z,50.70
2019-04-29T17:21:24.643Z,51.01
2019-04-29T17:23:31.493Z,51.40
2019-04-29T17:25:39.723Z,51.46
2019-04-29T17:27:54.289Z,51.41
2019-04-29T17:30:07.794Z,51.70
2019-04-29T17:32:24.481Z,51.99
2019-04-29T17:34:56.832Z,52.04
2019-04-29T17:35:15.456Z,49.10
2019-04-29T17:35:17.131Z,48.44
2019-04-29T17:36:42.398Z,52.25
2019-04-29T17:38:50.652Z,52.57
2019-04-29T17:40:58.547Z,52.56
2019-04-29T17:43:08.052Z,52.69
2019-04-29T17:45:26.959Z,52.80
2019-04-29T17:47:37.869Z,52.91
2019-04-29T17:49:52.628Z,53.13
2019-04-29T17:52:02.941Z,53.19
2019-04-29T17:54:10.376Z,53.39
2019-04-29T17:56:37.652Z,53.28
2019-04-29T17:58:51.397Z,53.05
2019-04-29T18:00:59.436Z,53.32
2019-04-29T18:03:25.222Z,53.42
2019-04-29T18:05:52.984Z,53.73
2019-04-29T18:07:51.764Z,53.66
2019-04-29T18:10:01.397Z,53.78
2019-04-29T18:12:10.542Z,54.04
2019-04-29T18:14:21.930Z,54.32
2019-04-29T18:16:30.979Z,54.39
2019-04-29T18:19:00.330Z,54.53
2019-04-29T18:21:14.954Z,54.84
2019-04-29T18:23:31.380Z,55.05
2019-04-29T18:25:44.890Z,55.44
2019-04-29T18:28:00.031Z,55.69
2019-04-29T18:30:06.957Z,55.95
2019-04-29T18:32:15.499Z,56.36
2019-04-29T18:34:23.134Z,56.51
2019-04-29T18:36:29.966Z,56.69
2019-04-29T18:38:42.430Z,56.77
2019-04-29T18:40:49.446Z,56.97
2019-04-29T18:42:56.731Z,57.18
2019-04-29T18:45:05.114Z,57.54
2019-04-29T18:47:20.653Z,57.81
2019-04-29T18:49:26.008Z,58.06
2019-04-29T18:51:34.751Z,58.18
2019-04-29T18:53:42.973Z,58.27
2019-04-29T18:55:50.759Z,58.34
2019-04-29T18:57:58.491Z,58.46
2019-04-29T19:00:12.737Z,58.70
2019-04-29T19:02:17.626Z,58.85
2019-04-29T19:04:27.752Z,59.02
2019-04-29T19:06:36.311Z,59.20
2019-04-29T19:08:45.009Z,59.35
2019-04-29T19:10:55.533Z,59.54
2019-04-29T19:13:05.380Z,59.83
2019-04-29T19:15:15.134Z,59.99
2019-04-29T19:17:23.233Z,60.26
2019-04-29T19:19:34.821Z,60.45
2019-04-29T19:21:40.777Z,60.63
2019-04-29T19:23:52.588Z,60.87
2019-04-29T19:25:59.312Z,61.00
2019-04-29T19:28:12.663Z,61.19
2019-04-29T19:30:20.762Z,61.50
2019-04-29T19:32:25.192Z,61.69
2019-04-29T19:34:42.214Z,61.96
2019-04-29T19:36:41.052Z,62.18
2019-04-29T19:38:48.592Z,62.30
2019-04-29T19:40:55.864Z,62.48
2019-04-29T19:43:03.212Z,62.79
2019-04-29T19:45:13.336Z,63.05
2019-04-29T19:47:19.581Z,63.23
2019-04-29T19:49:26.852Z,63.37
2019-04-29T19:51:35.113Z,63.55
2019-04-29T19:53:47.656Z,63.73
2019-04-29T19:56:01.442Z,64.04
2019-04-29T19:58:00.363Z,64.45
2019-04-29T20:00:10.942Z,64.45
2019-04-29T20:02:20.515Z,64.67
2019-04-29T20:04:32.689Z,64.78
2019-04-29T20:06:41.175Z,64.89
2019-04-29T20:08:57.028Z,65.08
2019-04-29T20:11:11.645Z,65.11
2019-04-29T20:13:09.887Z,65.39
2019-04-29T20:15:17.608Z,65.58
2019-04-29T20:17:36.499Z,65.70
2019-04-29T20:20:00.672Z,66.00
2019-04-29T20:22:09.890Z,66.23
2019-04-29T20:24:23.367Z,66.40
2019-04-29T20:26:31.379Z,66.40
2019-04-29T20:28:39.700Z,66.61
2019-04-29T20:30:50.508Z,66.73
2019-04-29T20:32:56.079Z,66.92
2019-04-29T20:35:07.231Z,67.08
2019-04-29T20:37:16.159Z,67.34
2019-04-29T20:39:23.208Z,67.44
2019-04-29T20:41:40.080Z,67.53
2019-04-29T20:43:41.462Z,67.78
2019-04-29T20:45:48.331Z,67.89
2019-04-29T20:47:56.213Z,67.98
2019-04-29T20:50:03.448Z,68.09
2019-04-29T20:52:13.463Z,68.36
2019-04-29T20:54:27.539Z,68.50
2019-04-29T20:56:35.398Z,68.47
2019-04-29T20:58:44.200Z,68.69
2019-04-29T21:00:50.560Z,68.67
2019-04-29T21:02:57.414Z,68.81
2019-04-29T21:05:06.554Z,68.90
2019-04-29T21:07:18.418Z,69.12
2019-04-29T21:09:27.526Z,69.15
2019-04-29T21:11:35.641Z,69.02
2019-04-29T21:13:55.979Z,69.18
2019-04-29T21:16:05.331Z,69.14
2019-04-29T21:18:14.554Z,69.30
2019-04-29T21:20:20.688Z,69.46
2019-04-29T21:22:27.354Z,69.71
2019-04-29T21:24:35.343Z,69.91
2019-04-29T21:26:44.422Z,69.87
2019-04-29T21:28:50.731Z,70.15
2019-04-29T21:30:58.960Z,70.20
2019-04-29T21:33:08.330Z,70.36
2019-04-29T21:35:19.866Z,70.47
2019-04-29T21:37:32.563Z,70.54
2019-04-29T21:39:41.901Z,70.60
2019-04-29T21:42:01.791Z,70.64
2019-04-29T21:44:08.464Z,70.79
2019-04-29T21:46:18.020Z,70.80
2019-04-29T21:48:25.345Z,70.98
2019-04-29T21:50:36.364Z,71.11
2019-04-29T21:52:41.576Z,71.17
2019-04-29T21:54:49.334Z,71.32
2019-04-29T21:56:56.174Z,71.35
2019-04-29T21:59:09.538Z,71.48
2019-04-29T22:01:11.639Z,71.60
2019-04-29T22:03:24.589Z,71.61
2019-04-29T22:05:27.846Z,71.67
2019-04-29T22:07:35.722Z,71.89
2019-04-29T22:09:47.318Z,72.01
2019-04-29T22:11:52.813Z,72.15
2019-04-29T22:13:59.153Z,72.19
2019-04-29T22:16:11.367Z,72.34
2019-04-29T22:18:18.090Z,72.36
2019-04-29T22:20:28.963Z,72.46
2019-04-29T22:22:37.092Z,72.52
2019-04-29T22:24:43.472Z,72.80
2019-04-29T22:26:50.007Z,72.91
2019-04-29T22:29:01.767Z,73.08
2019-04-29T22:31:07.665Z,73.25
2019-04-29T22:33:15.345Z,73.42
2019-04-29T22:35:22.631Z,73.52
2019-04-29T22:37:29.809Z,73.59
2019-04-29T22:39:36.284Z,73.83
2019-04-29T22:41:43.147Z,73.95
2019-04-29T22:46:09.358Z,74.12
2019-04-29T22:48:19.438Z,74.18
2019-04-29T22:50:23.430Z,74.19
2019-04-29T22:52:31.421Z,74.40
2019-04-29T22:54:40.041Z,74.36
2019-04-29T22:56:53.674Z,74.44
2019-04-29T22:58:58.844Z,74.45
2019-04-29T23:01:06.790Z,74.58
2019-04-29T23:03:16.600Z,74.65
2019-04-29T23:05:27.959Z,74.91
2019-04-29T23:07:35.233Z,75.16
2019-04-29T23:09:41.748Z,75.40
2019-04-29T23:11:49.827Z,75.40
2019-04-29T23:13:56.580Z,75.67
2019-04-29T23:16:02.834Z,75.85
2019-04-29T23:18:10.127Z,75.81
2019-04-29T23:20:28.815Z,75.97
2019-04-29T23:22:43.138Z,76.00
2019-04-29T23:24:51.277Z,76.05
2019-04-29T23:26:57.518Z,76.10
2019-04-29T23:29:07.202Z,76.27
2019-04-29T23:31:12.277Z,76.48
2019-04-29T23:33:23.015Z,76.57
2019-04-29T23:35:27.318Z,76.85
2019-04-29T23:37:35.764Z,77.00
2019-04-29T23:39:45.726Z,77.15
2019-04-29T23:41:52.381Z,77.34
2019-04-29T23:43:59.860Z,77.44
2019-04-29T23:46:07.154Z,77.67
2019-04-29T23:48:13.726Z,77.93
2019-04-29T23:50:20.410Z,77.80
2019-04-29T23:52:27.050Z,77.92
2019-04-29T23:54:44.347Z,78.22
2019-04-29T23:56:52.479Z,78.30
2019-04-29T23:59:05.415Z,78.40
